Terminal Aerodrome Forecast
Issued by NWS

Home | Current Version | Previous Version | Text Only | Print | Product List | Glossary On
Versions: 1 2 3 4 5 6 7 8 9 10 11 12
000
FTUS46 KSTO 010500
TAFMHR
TAF
KMHR 010531Z 0106/0206 32007KT P6SM SKC
     FM011600 33012G20KT P6SM SKC
     FM012300 32009KT P6SM SKC
     FM020400 VRB05KT P6SM SKC=

USA.gov is the U.S. government's official web portal to all federal, state and local government web resources and services.